Airfield :
LOGIN :

Register | Disclaimer

   EN    FR    IT 

 










Legend :    VFR   Marginal VFR   IFR   Intensive IFR   Very Intensive IFR
Visi :
Ceiling :
>= 8 km
>= 3000ft
5 to 8 km
1000 to 3000 ft
1500m to 5 km
500 to 1000 ft
800 to 1500m
200 to 500 ft
< 800m
< 200 ft
Symbols :   Thunderstorms  Fog  Heavy snow  Heavy precipitations  Wind > 20 kt
SIGMETs :     Misc.  Thunderstorms  Icing  Turbulence  Mountain Waves  Volcanic Ashes







- Airport Elevation : 202 ft
- IATA code : LGW
- Download approach charts


EGKK - London Gatwick

CURRENT METAR :
  • 231720Z 22012KT 160V250 9999 BKN004 11/11 Q1014

EXPIRED METARs :
  • 231650Z 21011KT 4000 -RA BKN006 11/11 Q1014
  • 231620Z 21010KT 4000 DZ BKN004 11/11 Q1014
  • 231550Z 21009KT 3200 -DZ BKN004 11/11 Q1014 RERA REDZ
  • 231520Z 22012KT 5000 -RADZ BKN005 11/11 Q1014
  • 231450Z 22011G21KT 4000 -RA BKN006 11/11 Q1014

TAF TAF EGKK
Valid from the 23 at 18:00 until the 25 at 00:00 UTC


231659Z 2318/2424 22010KT 4000 -DZ BR BKN008
TEMPO 2318/2322 BKN004
BECMG 2319/2322 9999 NSW
PROB40 2322/2406 SCT008 BKN018
BECMG 2400/2403 21015G25KT
TEMPO 2409/2415 21025G35KT 7000 RA
PROB30
TEMPO 2410/2414 23035G45KT 2500 +RA SCT012 BKN018
BECMG 2415/2418 SCT030
No reported NOTAMs for that airfield.



MET'MAP, your aeronautical weather chart ! - Copyright ORBIFLY December 2007 - Disclaimer

ORBIFLY MET'MAP TEAM :

Programming & Development : Alexandra Zaïnal
Concept & Development : Baudouin d'Aumeries
Co-Development & Prog : Marc-Olivier Méhu
Technical & hardware support : Manuel Goepfert

Contact : metmap@orbifly.com




SOURCES & CREDITS :

   NOAA